Latest Weather Observations for Hay Point

IDQ60801

Issued at 10:05 am EST Friday 28 November 2014 (issued every 30 minutes, with the page automatically refreshed every 10 minutes)

About weather observations | Map of weather stations | Latest weather observations for QLD | Other Formats
Station Details ID: 033317 Name: HAY POINT Lat: -21.29 Lon: 149.30 Height: 7.0 m
Data from the previous 72 hours. | See also: Recent months for locations in Queensland
Date/Time
EST
Temp
°C
App
Temp
°C
Dew
Point
Rel
Hum
%
Delta-T
°C
Wind Press
QNH
hPa
Press
MSL
hPa
Rain
since 9 am
mm
Dir
 
Spd
km/h
Gust
km/h
Spd
kts
Gust
kts
28/10:00am - - - - - SSE 20 28 11 15 - - -
28/09:30am - - - - - SSE 19 26 10 14 - - -
28/09:00am - - - - - SE 20 28 11 15 - - -
28/08:30am - - - - - ESE 20 26 11 14 - - -
28/08:00am - - - - - ESE 20 28 11 15 - - -
28/07:30am - - - - - ESE 20 26 11 14 - - -
28/07:00am - - - - - E 20 26 11 14 - - -
28/06:30am - - - - - E 24 30 13 16 - - -
28/06:00am - - - - - E 22 28 12 15 - - -
28/05:30am - - - - - E 20 24 11 13 - - -
28/05:00am - - - - - E 19 22 10 12 - - -
28/04:30am - - - - - E 19 24 10 13 - - -
28/04:00am - - - - - ENE 20 26 11 14 - - -
28/03:30am - - - - - E 20 26 11 14 - - -
28/03:00am - - - - - E 17 20 9 11 - - -
28/02:30am - - - - - E 20 26 11 14 - - -
28/02:00am - - - - - E 19 22 10 12 - - -
28/01:30am - - - - - ENE 20 26 11 14 - - -
28/01:00am - - - - - ENE 22 28 12 15 - - -
28/12:30am - - - - - ENE 20 26 11 14 - - -
28/12:00am - - - - - ENE 20 26 11 14 - - -
 
Date/Time
EST
Temp
°C
App
Temp
°C
Dew
Point
Rel
Hum
%
Delta-T
°C
Wind Press
QNH
hPa
Press
MSL
hPa
Rain
since 9 am
mm
Dir
 
Spd
km/h
Gust
km/h
Spd
kts
Gust
kts
27/11:30pm - - - - - E 20 28 11 15 - - -
27/11:00pm - - - - - E 19 24 10 13 - - -
27/10:30pm - - - - - E 20 28 11 15 - - -
27/10:00pm - - - - - E 22 28 12 15 - - -
27/09:30pm - - - - - E 20 26 11 14 - - -
27/09:00pm - - - - - E 20 26 11 14 - - -
27/08:30pm - - - - - E 20 24 11 13 - - -
27/08:00pm - - - - - E 20 26 11 14 - - -
27/07:30pm - - - - - E 22 26 12 14 - - -
27/07:00pm - - - - - E 24 28 13 15 - - -
27/06:30pm - - - - - E 20 24 11 13 - - -
27/06:00pm - - - - - ENE 22 26 12 14 - - -
27/05:30pm - - - - - ENE 20 26 11 14 - - -
27/05:00pm - - - - - ENE 20 26 11 14 - - -
27/04:30pm - - - - - ENE 20 26 11 14 - - -
27/04:00pm - - - - - E 19 24 10 13 - - -
27/03:30pm - - - - - E 19 22 10 12 - - -
27/03:00pm - - - - - E 19 24 10 13 - - -
27/02:30pm - - - - - E 19 24 10 13 - - -
27/02:00pm - - - - - E 19 22 10 12 - - -
27/01:30pm - - - - - E 20 26 11 14 - - -
27/01:00pm - - - - - E 20 26 11 14 - - -
27/12:30pm - - - - - ESE 20 26 11 14 - - -
27/12:00pm - - - - - E 20 26 11 14 - - -
27/11:30am - - - - - E 19 24 10 13 - - -
27/11:00am - - - - - E 19 26 10 14 - - -
27/10:30am - - - - - ENE 19 24 10 13 - - -
27/10:00am - - - - - ENE 19 26 10 14 - - -
27/09:30am - - - - - E 19 26 10 14 - - -
27/09:00am - - - - - ENE 20 28 11 15 - - -
27/08:30am - - - - - E 24 30 13 16 - - -
27/08:00am - - - - - NE 22 26 12 14 - - -
27/07:30am - - - - - E 15 19 8 10 - - -
27/07:00am - - - - - ESE 19 24 10 13 - - -
27/06:30am - - - - - E 19 24 10 13 - - -
27/06:00am - - - - - E 17 19 9 10 - - -
27/05:30am - - - - - E 19 22 10 12 - - -
27/05:00am - - - - - E 17 20 9 11 - - -
27/04:30am - - - - - E 19 24 10 13 - - -
27/04:00am - - - - - E 19 28 10 15 - - -
27/03:30am - - - - - E 20 28 11 15 - - -
27/03:00am - - - - - E 28 35 15 19 - - -
27/02:30am - - - - - E 26 30 14 16 - - -
27/02:00am - - - - - E 26 32 14 17 - - -
27/01:30am - - - - - E 28 32 15 17 - - -
27/01:00am - - - - - E 26 30 14 16 - - -
27/12:30am - - - - - E 26 30 14 16 - - -
27/12:00am - - - - - E 24 32 13 17 - - -
 
Date/Time
EST
Temp
°C
App
Temp
°C
Dew
Point
Rel
Hum
%
Delta-T
°C
Wind Press
QNH
hPa
Press
MSL
hPa
Rain
since 9 am
mm
Dir
 
Spd
km/h
Gust
km/h
Spd
kts
Gust
kts
26/11:30pm - - - - - E 28 32 15 17 - - -
26/11:00pm - - - - - E 28 32 15 17 - - -
26/10:30pm - - - - - E 30 33 16 18 - - -
26/10:00pm - - - - - E 28 33 15 18 - - -
26/09:30pm - - - - - E 28 32 15 17 - - -
26/09:00pm - - - - - E 24 28 13 15 - - -
26/08:30pm - - - - - E 22 30 12 16 - - -
26/08:00pm - - - - - E 20 28 11 15 - - -
26/07:30pm - - - - - ENE 20 24 11 13 - - -
26/07:00pm - - - - - ENE 24 28 13 15 - - -
26/06:30pm - - - - - ENE 24 30 13 16 - - -
26/06:00pm - - - - - ENE 22 28 12 15 - - -
26/05:30pm - - - - - ENE 24 28 13 15 - - -
26/05:00pm - - - - - ENE 24 30 13 16 - - -
26/04:30pm - - - - - ENE 26 30 14 16 - - -
26/04:00pm - - - - - ENE 26 30 14 16 - - -
26/03:30pm - - - - - ENE 28 32 15 17 - - -
26/03:00pm - - - - - ENE 28 32 15 17 - - -
26/02:30pm - - - - - ENE 26 30 14 16 - - -
26/02:00pm - - - - - ENE 28 32 15 17 - - -
26/01:30pm - - - - - ENE 26 30 14 16 - - -
26/01:00pm - - - - - ENE 24 28 13 15 - - -
26/12:30pm - - - - - ENE 28 30 15 16 - - -
26/12:00pm - - - - - ENE 28 33 15 18 - - -
26/11:30am - - - - - ENE 28 32 15 17 - - -
26/11:00am - - - - - ENE 28 32 15 17 - - -
26/10:30am - - - - - ENE 30 32 16 17 - - -
26/10:00am - - - - - ENE 32 35 17 19 - - -
26/09:30am - - - - - E 32 33 17 18 - - -
26/09:00am - - - - - ENE 32 35 17 19 - - -
26/08:30am - - - - - E 32 35 17 19 - - -
26/08:00am - - - - - E 30 33 16 18 - - -
26/07:30am - - - - - ENE 28 32 15 17 - - -
26/07:00am - - - - - ENE 28 32 15 17 - - -
26/06:30am - - - - - ENE 24 28 13 15 - - -
26/06:00am - - - - - ENE 24 28 13 15 - - -
26/05:30am - - - - - ENE 24 28 13 15 - - -
26/05:00am - - - - - ENE 24 26 13 14 - - -
26/04:30am - - - - - ENE 22 28 12 15 - - -
26/04:00am - - - - - ENE 22 26 12 14 - - -
26/03:30am - - - - - ENE 19 28 10 15 - - -
26/03:00am - - - - - ENE 19 22 10 12 - - -
26/02:30am - - - - - ENE 20 24 11 13 - - -
26/02:00am - - - - - ENE 24 28 13 15 - - -
26/01:30am - - - - - ENE 24 26 13 14 - - -
26/01:00am - - - - - NE 26 30 14 16 - - -
26/12:30am - - - - - NE 24 32 13 17 - - -
26/12:00am - - - - - ENE 20 26 11 14 - - -
 
Date/Time
EST
Temp
°C
App
Temp
°C
Dew
Point
Rel
Hum
%
Delta-T
°C
Wind Press
QNH
hPa
Press
MSL
hPa
Rain
since 9 am
mm
Dir
 
Spd
km/h
Gust
km/h
Spd
kts
Gust
kts
25/11:30pm - - - - - ENE 22 26 12 14 - - -
25/11:00pm - - - - - ENE 24 28 13 15 - - -
25/10:30pm - - - - - ENE 26 32 14 17 - - -
25/10:00pm - - - - - E 26 35 14 19 - - -
25/09:30pm - - - - - E 22 28 12 15 - - -
25/09:00pm - - - - - ENE 22 28 12 15 - - -
25/08:30pm - - - - - E 20 24 11 13 - - -
25/08:00pm - - - - - E 20 26 11 14 - - -
25/07:30pm - - - - - ESE 19 26 10 14 - - -
25/07:00pm - - - - - ESE 22 28 12 15 - - -
25/06:30pm - - - - - ESE 24 28 13 15 - - -
25/06:00pm - - - - - SE 19 24 10 13 - - -
25/05:30pm - - - - - E 22 28 12 15 - - -
25/05:00pm - - - - - ESE 20 26 11 14 - - -
25/04:30pm - - - - - SE 17 24 9 13 - - -
25/04:00pm - - - - - ESE 20 24 11 13 - - -
25/03:30pm - - - - - ESE 19 24 10 13 - - -
25/03:00pm - - - - - SE 15 19 8 10 - - -
25/02:30pm - - - - - E 20 26 11 14 - - -
25/02:00pm - - - - - E 20 26 11 14 - - -
25/01:30pm - - - - - E 22 26 12 14 - - -
25/01:00pm - - - - - E 22 26 12 14 - - -
25/12:30pm - - - - - ESE 20 26 11 14 - - -
25/12:00pm - - - - - ESE 20 26 11 14 - - -
25/11:30am - - - - - ESE 19 24 10 13 - - -
25/11:00am - - - - - ESE 19 24 10 13 - - -
25/10:30am - - - - - ESE 19 24 10 13 - - -

Other Formats:

Comma delimited format used in spreadsheet applications
http://www.bom.gov.au/fwo/IDQ60801/IDQ60801.99367.axf

JavaScript Object Notation format (JSON) in row-major order
http://www.bom.gov.au/fwo/IDQ60801/IDQ60801.99367.json